Rodman, Iowa
Current Conditions -  °F | °C
As of 4:55 PM on Saturday 20 Dec 2014 (Local Time) from KAXA Reporting Station
Haze Haze  
Wind Chill: 24°   Ceiling: 400
Heat Index: 32°   Visibility: 3mi
Dew Point: 32°   Wind: 9mph
Humidity: 100%   Direction: 160°SSE
Pressure: 30.1"   Gusts: NA
Location:  43.0372°N, 94.5003°W
Report Text: KAXA 202255Z AUTO 16008KT 3SM BR OVC004 M00/00 A3010 RMK AO2
Loading
Personal Weather Stations






























Interactive Weather Map New forecast layout! Learn more

10-Day Weather Forecast

Advertisements
Track Severe Weather on mobile